Time;durP1;ratioP1;P1;durP2;ratioP2;P2;SDS_P1;SDS_P2;PMS_P1;PMS_P2;Temp;Humidity;BMP_temperature;BMP_pressure;BME280_temperature;BME280_humidity;BME280_pressure;Samples;Min_cycle;Max_cycle;Signal;HPM_P1;HPM_P2
2021/10/04 00:01:24;;;;;;;8.15;5.82;;;24.80;49.40;;;;;;6224528;28;80466;-64
2021/10/04 00:04:24;;;;;;;7.80;5.90;;;24.80;49.40;;;;;;6231656;27;80709;-63
2021/10/04 00:07:25;;;;;;;7.65;5.32;;;24.80;49.40;;;;;;6232132;27;84747;-64
2021/10/04 00:10:25;;;;;;;9.60;6.00;;;24.80;49.30;;;;;;6230932;27;81044;-64
2021/10/04 00:13:26;;;;;;;8.25;6.25;;;24.80;49.40;;;;;;6233493;27;80837;-64
2021/10/04 00:16:26;;;;;;;9.13;6.47;;;24.90;49.40;;;;;;6233019;27;82559;-64
2021/10/04 00:19:27;;;;;;;7.18;5.50;;;24.80;49.30;;;;;;6236042;27;80569;-65
2021/10/04 00:22:27;;;;;;;7.88;6.07;;;24.80;49.50;;;;;;6235309;27;82519;-66
2021/10/04 00:25:28;;;;;;;7.53;5.82;;;24.80;49.30;;;;;;6230580;28;81010;-64
2021/10/04 00:28:29;;;;;;;8.23;5.75;;;24.80;49.80;;;;;;6235800;27;81387;-64
2021/10/04 00:31:29;;;;;;;8.95;6.13;;;24.80;50.00;;;;;;6228130;28;80274;-65
2021/10/04 00:34:30;;;;;;;8.95;5.60;;;24.80;49.50;;;;;;6231917;27;81032;-64
2021/10/04 00:37:30;;;;;;;7.90;5.72;;;24.80;49.70;;;;;;6236120;27;80400;-65
2021/10/04 00:40:31;;;;;;;8.70;5.88;;;24.80;49.70;;;;;;6236037;27;80340;-64
2021/10/04 00:43:31;;;;;;;6.93;5.57;;;24.80;49.90;;;;;;6233289;27;81006;-66
2021/10/04 00:46:32;;;;;;;8.10;5.80;;;24.80;49.70;;;;;;6233637;27;80547;-65
2021/10/04 00:49:32;;;;;;;9.73;6.15;;;24.80;49.80;;;;;;6219780;28;81808;-65
2021/10/04 00:52:33;;;;;;;8.70;5.93;;;24.80;49.90;;;;;;6233604;27;81631;-64
2021/10/04 00:55:33;;;;;;;7.78;5.47;;;24.70;49.40;;;;;;6236861;28;80620;-64
2021/10/04 00:58:34;;;;;;;7.47;5.15;;;24.80;49.70;;;;;;6234590;28;82112;-65
2021/10/04 01:01:34;;;;;;;6.72;5.43;;;24.80;49.60;;;;;;6235178;28;80490;-65
2021/10/04 01:04:35;;;;;;;9.57;6.22;;;24.80;49.60;;;;;;6236173;28;80352;-64
2021/10/04 01:07:35;;;;;;;11.07;5.15;;;24.80;49.70;;;;;;6226924;27;80268;-64
2021/10/04 01:10:36;;;;;;;8.40;5.53;;;24.80;49.70;;;;;;6234570;27;80773;-64
2021/10/04 01:13:36;;;;;;;8.82;5.90;;;24.70;49.70;;;;;;6233969;28;81489;-63
2021/10/04 01:16:37;;;;;;;7.20;5.32;;;24.80;49.90;;;;;;6234654;27;80376;-64
2021/10/04 01:19:37;;;;;;;7.10;5.32;;;24.80;49.50;;;;;;6224551;27;82507;-64
2021/10/04 01:22:38;;;;;;;7.68;5.00;;;24.80;49.80;;;;;;6225190;28;81412;-64
2021/10/04 01:25:38;;;;;;;6.82;5.32;;;24.80;50.30;;;;;;6223486;27;82056;-64
2021/10/04 01:28:39;;;;;;;6.03;5.22;;;24.70;49.50;;;;;;6234487;28;80711;-64
2021/10/04 01:31:40;;;;;;;7.97;5.50;;;24.80;49.70;;;;;;6227699;27;81947;-64
2021/10/04 01:34:40;;;;;;;6.43;5.13;;;24.70;49.90;;;;;;6234120;27;80234;-64
2021/10/04 01:37:41;;;;;;;5.82;5.15;;;24.80;49.50;;;;;;6232327;28;80402;-64
2021/10/04 01:40:43;;;;;;;6.63;5.13;;;24.70;49.60;;;;;;6234340;27;80430;-64
2021/10/04 01:43:43;;;;;;;6.35;4.75;;;24.80;49.80;;;;;;6234469;27;80459;-64
2021/10/04 01:46:44;;;;;;;6.15;5.00;;;24.70;49.60;;;;;;6230624;27;81506;-64
2021/10/04 01:49:44;;;;;;;7.03;5.00;;;24.70;50.00;;;;;;6226749;27;81331;-64
2021/10/04 01:52:45;;;;;;;8.05;5.80;;;24.70;49.90;;;;;;6234777;27;80993;-64
2021/10/04 01:55:46;;;;;;;6.38;5.00;;;24.70;49.90;;;;;;6233197;27;83514;-64
2021/10/04 01:58:46;;;;;;;6.85;5.43;;;24.70;50.10;;;;;;6232792;28;80417;-64
2021/10/04 02:01:47;;;;;;;8.27;5.40;;;24.70;49.90;;;;;;6233915;27;80604;-64
2021/10/04 02:04:47;;;;;;;8.38;5.07;;;24.70;50.20;;;;;;6231592;27;81367;-64
2021/10/04 02:07:48;;;;;;;6.68;4.90;;;24.70;49.80;;;;;;6229757;27;81392;-63
2021/10/04 02:10:48;;;;;;;8.48;5.30;;;24.70;49.40;;;;;;6232787;27;81538;-63
2021/10/04 02:13:49;;;;;;;7.65;5.15;;;24.70;49.60;;;;;;6232915;27;81388;-64
2021/10/04 02:16:49;;;;;;;7.43;5.50;;;24.70;49.50;;;;;;6233953;27;80086;-64
2021/10/04 02:19:50;;;;;;;5.82;5.22;;;24.70;49.80;;;;;;6233911;27;81107;-64
2021/10/04 02:22:50;;;;;;;5.75;5.10;;;24.70;49.40;;;;;;6223683;28;79970;-64
2021/10/04 02:25:54;;;;;;;7.72;5.07;;;24.70;49.40;;;;;;6226185;27;81678;-65
2021/10/04 02:28:54;;;;;;;7.85;5.28;;;24.70;49.50;;;;;;6232530;28;80812;-63
2021/10/04 02:31:55;;;;;;;6.68;5.30;;;24.70;49.30;;;;;;6229737;27;81611;-63
2021/10/04 02:34:55;;;;;;;6.47;5.40;;;24.70;49.50;;;;;;6225748;28;80401;-64
2021/10/04 02:37:56;;;;;;;7.00;5.40;;;24.70;49.30;;;;;;6233052;27;80360;-63
2021/10/04 02:40:56;;;;;;;8.05;5.75;;;24.70;49.20;;;;;;6231055;28;81582;-64
2021/10/04 02:43:57;;;;;;;6.13;5.03;;;24.70;49.20;;;;;;6229224;27;80990;-64
2021/10/04 02:46:59;;;;;;;6.00;5.07;;;24.70;49.00;;;;;;6223892;28;81455;-63
2021/10/04 02:50:00;;;;;;;6.32;4.93;;;24.70;49.50;;;;;;6229168;27;80636;-64
2021/10/04 02:53:00;;;;;;;9.05;5.38;;;24.70;49.20;;;;;;6231771;27;80364;-63
2021/10/04 02:56:01;;;;;;;7.70;5.25;;;24.70;49.10;;;;;;6231918;27;80486;-63
2021/10/04 02:59:01;;;;;;;9.35;5.47;;;24.70;49.30;;;;;;6232197;27;80207;-63
2021/10/04 03:02:02;;;;;;;7.15;5.00;;;24.70;49.10;;;;;;6231739;28;80835;-63
2021/10/04 03:05:02;;;;;;;8.10;5.38;;;24.70;48.90;;;;;;6231479;27;81219;-63
2021/10/04 03:08:05;;;;;;;7.80;5.65;;;24.70;48.90;;;;;;6231060;27;81456;-64
2021/10/04 03:11:05;;;;;;;6.50;5.38;;;24.70;48.60;;;;;;6237484;27;80560;-63
2021/10/04 03:14:06;;;;;;;8.02;5.28;;;24.70;48.90;;;;;;6228819;28;80442;-63
2021/10/04 03:17:07;;;;;;;6.88;5.35;;;24.70;49.70;;;;;;6232037;27;81536;-63
2021/10/04 03:20:07;;;;;;;9.82;5.88;;;24.70;49.10;;;;;;6227102;27;80384;-64
2021/10/04 03:23:08;;;;;;;8.15;5.68;;;24.70;49.30;;;;;;6228950;27;81565;-63
2021/10/04 03:26:08;;;;;;;8.65;5.40;;;24.70;49.40;;;;;;6230537;27;80339;-63
2021/10/04 03:29:10;;;;;;;9.50;5.70;;;24.70;49.00;;;;;;6230546;28;80135;-63
2021/10/04 03:32:10;;;;;;;7.45;5.40;;;24.70;49.50;;;;;;6231472;27;80461;-64
2021/10/04 03:35:11;;;;;;;7.50;5.40;;;24.70;49.30;;;;;;6229754;27;80438;-63
2021/10/04 03:38:11;;;;;;;6.97;5.10;;;24.70;49.50;;;;;;6225999;28;80740;-63
2021/10/04 03:41:12;;;;;;;6.68;5.03;;;24.70;49.30;;;;;;6231455;28;80413;-64
2021/10/04 03:44:12;;;;;;;8.65;5.35;;;24.70;49.10;;;;;;6220682;27;80614;-64
2021/10/04 03:47:13;;;;;;;8.98;5.50;;;24.70;49.40;;;;;;6215833;28;80677;-63
2021/10/04 03:50:13;;;;;;;7.63;5.22;;;24.60;49.10;;;;;;6217883;28;80942;-63
2021/10/04 03:53:14;;;;;;;6.03;4.97;;;24.70;49.70;;;;;;6211534;28;80709;-64
2021/10/04 03:56:14;;;;;;;8.00;5.65;;;24.70;49.60;;;;;;6225770;27;81150;-64
2021/10/04 03:59:15;;;;;;;6.07;5.05;;;24.70;49.30;;;;;;6231733;27;80745;-64
2021/10/04 04:02:15;;;;;;;6.63;5.28;;;24.70;49.10;;;;;;6231672;28;81830;-64
2021/10/04 04:05:16;;;;;;;9.05;5.32;;;24.70;49.30;;;;;;6229617;27;80431;-64
2021/10/04 04:08:16;;;;;;;7.78;6.05;;;24.60;49.10;;;;;;6223933;28;81405;-64
2021/10/04 04:11:17;;;;;;;7.18;5.50;;;24.70;49.10;;;;;;6231749;27;80974;-63
2021/10/04 04:14:19;;;;;;;6.05;4.63;;;24.60;49.10;;;;;;6219537;28;80706;-64
2021/10/04 04:17:19;;;;;;;8.02;6.00;;;24.60;49.40;;;;;;6231674;28;80863;-64
2021/10/04 04:20:20;;;;;;;6.93;5.35;;;24.60;49.40;;;;;;6228834;27;81431;-63
2021/10/04 04:23:20;;;;;;;8.63;5.45;;;24.60;49.00;;;;;;6221142;28;80547;-63
2021/10/04 04:26:21;;;;;;;7.32;5.28;;;24.60;49.20;;;;;;6231275;27;80625;-63
2021/10/04 04:29:25;;;;;;;7.80;5.85;;;24.70;49.20;;;;;;6230053;28;80664;-63
2021/10/04 04:32:26;;;;;;;8.45;4.90;;;24.70;49.30;;;;;;6229344;28;80564;-63
2021/10/04 04:35:26;;;;;;;7.72;5.43;;;24.60;49.50;;;;;;6230190;28;80009;-63
2021/10/04 04:38:27;;;;;;;7.00;4.97;;;24.60;49.00;;;;;;6229328;28;81553;-60
2021/10/04 04:41:27;;;;;;;14.80;5.47;;;24.60;49.30;;;;;;6226830;27;80311;-65
2021/10/04 04:44:28;;;;;;;14.50;5.60;;;24.60;48.60;;;;;;6228871;27;80543;-64
2021/10/04 04:47:28;;;;;;;11.98;6.00;;;24.60;49.10;;;;;;6221597;28;81625;-64
2021/10/04 04:50:29;;;;;;;13.35;5.32;;;24.60;48.70;;;;;;6238891;27;81401;-65
2021/10/04 04:53:35;;;;;;;11.75;5.53;;;24.60;48.80;;;;;;6225859;28;81007;-65
2021/10/04 04:56:35;;;;;;;10.25;5.75;;;24.60;48.60;;;;;;6217871;28;80282;-63
2021/10/04 04:59:36;;;;;;;10.52;5.40;;;24.60;48.70;;;;;;6229064;27;80354;-64
2021/10/04 05:02:37;;;;;;;10.00;5.72;;;24.60;48.60;;;;;;6221259;28;81590;-63
2021/10/04 05:05:37;;;;;;;11.77;5.45;;;24.60;49.00;;;;;;6223956;27;80933;-65
2021/10/04 05:08:38;;;;;;;42.10;19.05;;;24.60;48.90;;;;;;6231929;27;80474;-63
2021/10/04 05:11:38;;;;;;;143.85;56.58;;;24.60;48.80;;;;;;6229509;28;83404;-63
2021/10/04 05:14:39;;;;;;;236.65;88.82;;;24.60;48.90;;;;;;6227119;28;83600;-64
2021/10/04 05:17:39;;;;;;;270.58;101.60;;;24.60;48.80;;;;;;6230525;27;84186;-63
2021/10/04 05:20:40;;;;;;;316.88;119.38;;;24.60;48.90;;;;;;6228211;27;85779;-63
2021/10/04 05:23:40;;;;;;;391.35;141.95;;;24.60;49.10;;;;;;6227335;27;87774;-64
2021/10/04 05:26:41;;;;;;;342.77;123.95;;;24.60;48.90;;;;;;6227701;27;85798;-63
2021/10/04 05:29:42;;;;;;;290.05;112.00;;;24.60;48.70;;;;;;6219454;27;85676;-64
2021/10/04 05:32:42;;;;;;;265.75;101.05;;;24.60;48.20;;;;;;6224630;28;85875;-63
2021/10/04 05:35:43;;;;;;;240.23;88.30;;;24.60;47.80;;;;;;6226958;28;85947;-65
2021/10/04 05:38:46;;;;;;;208.32;79.40;;;24.60;47.50;;;;;;6232506;27;85526;-65
2021/10/04 05:41:48;;;;;;;189.95;71.53;;;24.60;47.90;;;;;;6225577;28;83317;-64
2021/10/04 05:44:49;;;;;;;171.85;64.22;;;24.60;48.30;;;;;;6224762;28;84077;-64
2021/10/04 05:47:50;;;;;;;139.98;58.65;;;24.60;48.30;;;;;;6221921;27;83764;-63
2021/10/04 05:50:50;;;;;;;138.25;54.53;;;24.60;48.10;;;;;;6228412;27;84517;-63
2021/10/04 05:53:51;;;;;;;121.45;51.03;;;24.60;48.20;;;;;;6230759;27;83527;-63
2021/10/04 05:56:51;;;;;;;105.18;44.63;;;24.60;48.60;;;;;;6229741;28;83229;-64
2021/10/04 05:59:52;;;;;;;104.90;42.15;;;24.60;48.50;;;;;;6229210;28;83973;-64
2021/10/04 06:02:52;;;;;;;99.00;40.03;;;24.60;48.60;;;;;;6228211;28;83445;-64
2021/10/04 06:05:53;;;;;;;82.53;35.85;;;24.60;48.60;;;;;;6218224;28;84982;-64
2021/10/04 06:08:53;;;;;;;77.40;31.30;;;24.60;48.60;;;;;;6233952;27;83440;-62
2021/10/04 06:11:54;;;;;;;72.32;30.67;;;24.60;48.60;;;;;;6227050;28;84237;-62
2021/10/04 06:14:54;;;;;;;67.00;29.10;;;24.70;48.30;;;;;;6224307;28;83316;-63
2021/10/04 06:17:55;;;;;;;72.55;26.63;;;24.70;48.10;;;;;;6227300;28;85002;-64
2021/10/04 06:20:55;;;;;;;67.32;24.98;;;24.70;48.20;;;;;;6228987;28;83490;-63
2021/10/04 06:23:56;;;;;;;56.92;23.80;;;24.70;48.10;;;;;;6221943;27;84604;-65
2021/10/04 06:26:56;;;;;;;51.50;23.23;;;24.70;48.10;;;;;;6225658;28;83753;-65
2021/10/04 06:29:57;;;;;;;49.22;20.52;;;24.70;47.80;;;;;;6229322;28;84350;-65
2021/10/04 06:32:57;;;;;;;46.75;20.00;;;24.70;48.10;;;;;;6221218;27;84134;-65
2021/10/04 06:35:58;;;;;;;35.58;16.67;;;24.70;48.00;;;;;;6223107;27;84075;-65
2021/10/04 06:38:58;;;;;;;39.70;18.55;;;24.70;47.90;;;;;;6227616;27;84269;-65
2021/10/04 06:41:59;;;;;;;35.70;17.10;;;24.70;47.50;;;;;;6222550;28;83870;-66
2021/10/04 06:45:05;;;;;;;33.17;15.40;;;24.60;47.40;;;;;;6225388;28;84424;-65
2021/10/04 06:48:06;;;;;;;32.85;15.60;;;24.60;47.30;;;;;;6223078;28;84987;-65
2021/10/04 06:51:06;;;;;;;35.03;14.25;;;24.60;47.10;;;;;;6226736;27;83165;-65
2021/10/04 06:54:07;;;;;;;26.15;13.95;;;24.70;46.70;;;;;;6224986;28;84013;-65
2021/10/04 06:57:08;;;;;;;34.55;13.75;;;24.70;47.10;;;;;;6225619;27;84368;-67
2021/10/04 07:00:09;;;;;;;28.33;12.45;;;24.70;47.00;;;;;;6224026;27;84586;-66
2021/10/04 07:03:09;;;;;;;24.33;12.38;;;24.70;46.70;;;;;;6222809;28;86164;-66
2021/10/04 07:06:10;;;;;;;24.58;11.98;;;24.80;46.80;;;;;;6229497;27;83489;-66
2021/10/04 07:09:10;;;;;;;27.30;12.48;;;24.70;46.90;;;;;;6207832;28;83009;-67
2021/10/04 07:12:11;;;;;;;25.67;11.80;;;24.80;47.20;;;;;;6231505;28;84248;-67
2021/10/04 07:15:12;;;;;;;23.05;11.40;;;24.70;47.10;;;;;;6229408;28;83139;-66
2021/10/04 07:18:13;;;;;;;24.00;11.85;;;24.80;47.30;;;;;;6226965;28;85640;-68
2021/10/04 07:21:13;;;;;;;24.42;11.15;;;24.80;47.10;;;;;;6226882;27;83040;-66
2021/10/04 07:24:14;;;;;;;24.23;11.25;;;24.90;47.10;;;;;;6226651;27;83461;-67
2021/10/04 07:27:14;;;;;;;23.23;9.88;;;24.90;47.30;;;;;;6222744;28;82955;-65
2021/10/04 07:30:16;;;;;;;19.67;10.00;;;24.90;47.40;;;;;;6231954;28;82926;-66
2021/10/04 07:33:16;;;;;;;22.15;9.30;;;24.90;47.40;;;;;;6228349;27;83140;-66
2021/10/04 07:36:17;;;;;;;18.50;10.10;;;24.90;47.80;;;;;;6231367;27;81871;-65
2021/10/04 07:39:18;;;;;;;19.83;9.68;;;24.80;48.00;;;;;;6225601;27;83426;-66
2021/10/04 07:42:20;;;;;;;17.48;9.20;;;24.80;48.10;;;;;;6218703;28;83003;-64
2021/10/04 07:45:21;;;;;;;20.90;9.90;;;24.90;48.40;;;;;;6228177;27;81332;-66
2021/10/04 07:48:21;;;;;;;12.18;8.90;;;24.90;48.40;;;;;;6231904;28;80086;-66
2021/10/04 07:51:22;;;;;;;14.73;9.05;;;24.90;47.70;;;;;;6225084;27;81879;-66
2021/10/04 07:54:22;;;;;;;23.13;9.75;;;25.00;47.20;;;;;;6222284;28;80801;-65
2021/10/04 07:57:23;;;;;;;19.15;8.43;;;24.90;47.00;;;;;;6228600;28;81636;-66
2021/10/04 08:00:24;;;;;;;15.43;8.60;;;24.90;47.10;;;;;;6243085;27;81566;-64
2021/10/04 08:03:24;;;;;;;17.10;8.50;;;24.90;47.00;;;;;;6228893;28;80803;-65
2021/10/04 08:06:26;;;;;;;13.38;8.13;;;24.90;47.40;;;;;;6232027;27;80562;-66
2021/10/04 08:09:27;;;;;;;29.55;8.98;;;24.90;47.50;;;;;;6229810;27;80402;-65
2021/10/04 08:12:28;;;;;;;14.15;7.75;;;25.00;47.60;;;;;;6227735;28;81605;-64
2021/10/04 08:15:28;;;;;;;12.40;7.80;;;25.00;47.50;;;;;;6211418;28;81887;-64
2021/10/04 08:18:29;;;;;;;15.52;7.35;;;25.00;47.70;;;;;;6223296;27;80846;-64
2021/10/04 08:21:31;;;;;;;13.13;8.18;;;25.00;47.80;;;;;;6225193;27;81831;-64
2021/10/04 08:24:31;;;;;;;15.57;8.25;;;25.10;47.60;;;;;;6221220;27;80608;-64
2021/10/04 08:27:32;;;;;;;16.40;7.28;;;25.00;47.80;;;;;;6224464;28;81351;-64
2021/10/04 08:30:32;;;;;;;14.77;7.43;;;25.00;48.00;;;;;;6223227;27;80551;-64
2021/10/04 08:33:33;;;;;;;13.93;7.70;;;25.10;48.20;;;;;;6228659;28;81494;-63
2021/10/04 08:36:33;;;;;;;12.10;7.10;;;25.10;48.60;;;;;;6234731;28;80661;-64
2021/10/04 08:39:34;;;;;;;14.60;8.27;;;25.10;48.40;;;;;;6249428;28;83215;-64
2021/10/04 08:42:34;;;;;;;22.77;10.63;;;25.10;48.40;;;;;;6229335;28;82041;-65
2021/10/04 08:45:35;;;;;;;45.78;13.43;;;25.20;48.60;;;;;;6227199;28;83184;-64
2021/10/04 08:48:35;;;;;;;92.85;30.85;;;25.20;48.90;;;;;;6227305;27;84110;-65
2021/10/04 08:51:36;;;;;;;115.68;36.83;;;25.20;49.80;;;;;;6224679;27;83492;-63
2021/10/04 08:54:36;;;;;;;107.63;37.20;;;25.20;50.40;;;;;;6231707;27;83081;-64
2021/10/04 08:57:37;;;;;;;82.47;28.55;;;25.20;50.80;;;;;;6229789;27;83451;-65
2021/10/04 09:00:37;;;;;;;58.15;22.73;;;25.20;51.30;;;;;;6224845;28;83046;-64
2021/10/04 09:03:38;;;;;;;45.00;19.10;;;25.30;51.60;;;;;;6224286;27;83261;-64
2021/10/04 09:06:38;;;;;;;37.85;15.50;;;25.30;51.70;;;;;;6230999;27;82883;-64
2021/10/04 09:09:41;;;;;;;28.80;13.32;;;25.30;52.00;;;;;;6224495;27;84124;-65
2021/10/04 09:12:42;;;;;;;35.55;13.63;;;25.30;51.90;;;;;;6226048;28;84246;-65
2021/10/04 09:15:42;;;;;;;27.27;13.07;;;25.30;52.00;;;;;;6223612;27;84860;-66
2021/10/04 09:18:43;;;;;;;29.63;13.10;;;25.40;52.00;;;;;;6222221;28;84162;-65
2021/10/04 09:21:43;;;;;;;32.17;13.07;;;25.40;52.20;;;;;;6226287;27;83284;-65
2021/10/04 09:24:44;;;;;;;26.63;12.43;;;25.50;52.00;;;;;;6226655;27;83389;-66
2021/10/04 09:27:44;;;;;;;25.77;11.68;;;25.50;51.80;;;;;;6230694;27;86273;-65
2021/10/04 09:30:46;;;;;;;29.63;10.65;;;25.50;51.90;;;;;;6230974;27;84515;-64
2021/10/04 09:33:46;;;;;;;18.38;10.25;;;25.50;51.50;;;;;;6227805;27;83541;-65
2021/10/04 09:36:47;;;;;;;22.30;10.27;;;25.50;51.60;;;;;;6231109;27;83186;-63
2021/10/04 09:39:47;;;;;;;23.25;10.23;;;25.50;51.60;;;;;;6222675;28;83599;-67
2021/10/04 09:42:48;;;;;;;19.58;9.32;;;25.60;51.70;;;;;;6229779;27;83219;-66
2021/10/04 09:45:48;;;;;;;106.45;36.75;;;25.60;51.70;;;;;;6227848;27;83145;-66
2021/10/04 09:48:49;;;;;;;184.20;67.82;;;25.70;51.80;;;;;;6229251;27;85387;-65
2021/10/04 09:51:49;;;;;;;317.02;114.72;;;25.70;51.80;;;;;;6229570;28;83016;-65
2021/10/04 09:54:50;;;;;;;326.40;114.72;;;25.70;51.70;;;;;;6224489;28;93316;-65
2021/10/04 09:57:50;;;;;;;296.00;107.07;;;25.70;51.80;;;;;;6241108;27;88090;-64
2021/10/04 10:00:51;;;;;;;292.42;105.47;;;25.70;51.70;;;;;;6227559;27;85846;-67
2021/10/04 10:03:51;;;;;;;267.80;99.75;;;25.70;51.90;;;;;;6218108;28;85875;-65
2021/10/04 10:06:52;;;;;;;237.70;89.47;;;25.80;51.90;;;;;;6241915;27;85077;-65
2021/10/04 10:09:52;;;;;;;229.52;83.63;;;25.80;52.00;;;;;;6229978;27;83559;-65
2021/10/04 10:12:53;;;;;;;220.80;82.25;;;25.80;51.80;;;;;;6230706;28;83317;-65
2021/10/04 10:15:53;;;;;;;206.68;77.38;;;25.90;51.90;;;;;;6222126;27;83681;-65
2021/10/04 10:18:54;;;;;;;192.80;71.43;;;25.90;51.90;;;;;;6228591;27;82928;-64
2021/10/04 10:21:54;;;;;;;162.43;63.60;;;25.90;52.00;;;;;;6223961;28;84036;-64
2021/10/04 10:24:56;;;;;;;158.98;61.28;;;26.00;52.30;;;;;;6228442;27;84540;-65
2021/10/04 10:27:56;;;;;;;151.00;57.35;;;26.00;52.40;;;;;;6226566;27;83027;-66
2021/10/04 10:30:57;;;;;;;130.63;53.72;;;26.00;52.30;;;;;;6226646;28;83311;-65
2021/10/04 10:33:57;;;;;;;128.10;52.78;;;26.00;52.20;;;;;;6229456;27;83875;-66
2021/10/04 10:36:58;;;;;;;117.95;47.97;;;26.10;52.10;;;;;;6220651;28;86252;-67
2021/10/04 10:39:59;;;;;;;111.28;45.25;;;26.10;52.10;;;;;;6226733;27;83092;-64
2021/10/04 10:42:59;;;;;;;104.45;41.63;;;26.10;52.00;;;;;;6228548;27;83871;-66
2021/10/04 10:46:00;;;;;;;101.35;41.80;;;26.10;52.00;;;;;;6221063;28;85542;-65
2021/10/04 10:49:03;;;;;;;85.50;36.70;;;26.10;51.80;;;;;;6222622;28;85024;-66
2021/10/04 10:52:03;;;;;;;90.78;34.78;;;26.20;52.00;;;;;;6227645;27;82958;-67
2021/10/04 10:55:04;;;;;;;72.05;33.50;;;26.10;52.10;;;;;;6219176;27;84908;-65
2021/10/04 10:58:04;;;;;;;74.15;30.08;;;26.20;52.20;;;;;;6218762;27;83420;-66
2021/10/04 11:01:05;;;;;;;65.03;29.30;;;26.20;52.00;;;;;;6224133;28;83326;-66
2021/10/04 11:04:05;;;;;;;64.65;28.30;;;26.20;52.00;;;;;;6224812;28;86294;-67
2021/10/04 11:07:06;;;;;;;63.05;26.00;;;26.30;52.00;;;;;;6225178;27;83447;-63
2021/10/04 11:10:06;;;;;;;51.13;23.45;;;26.20;52.00;;;;;;6221748;27;84063;-65
2021/10/04 11:13:07;;;;;;;57.63;23.42;;;26.20;52.40;;;;;;6228760;28;83088;-65
2021/10/04 11:16:08;;;;;;;51.47;21.25;;;26.30;51.80;;;;;;6227086;27;83169;-65
2021/10/04 11:19:08;;;;;;;42.92;20.25;;;26.30;51.50;;;;;;6224321;27;83191;-66
2021/10/04 11:22:09;;;;;;;44.70;19.77;;;26.30;51.80;;;;;;6227036;27;85524;-67
2021/10/04 11:25:09;;;;;;;45.67;18.60;;;26.30;51.80;;;;;;6220006;27;83100;-68
2021/10/04 11:28:10;;;;;;;35.50;16.27;;;26.30;51.40;;;;;;6228906;27;86738;-68
2021/10/04 11:31:10;;;;;;;34.45;16.58;;;26.30;51.20;;;;;;6226893;27;83611;-67
2021/10/04 11:34:11;;;;;;;34.00;16.42;;;26.30;51.20;;;;;;6217412;27;84544;-67
2021/10/04 11:37:11;;;;;;;33.03;15.88;;;26.30;51.40;;;;;;6224066;27;82903;-67
2021/10/04 11:40:12;;;;;;;30.88;14.63;;;26.40;51.10;;;;;;6227363;27;83303;-67
2021/10/04 11:43:13;;;;;;;34.10;15.60;;;26.40;51.40;;;;;;6226489;27;83221;-68
2021/10/04 11:46:14;;;;;;;30.13;14.20;;;26.40;51.40;;;;;;6222974;28;84517;-66
2021/10/04 11:49:15;;;;;;;28.55;12.80;;;26.40;51.40;;;;;;6223396;28;85838;-66
2021/10/04 11:52:16;;;;;;;22.40;11.73;;;26.40;51.30;;;;;;6223843;27;83055;-67
2021/10/04 11:55:20;;;;;;;24.08;10.38;;;26.40;51.40;;;;;;6226884;27;83019;-67
2021/10/04 11:58:20;;;;;;;19.48;9.48;;;26.40;51.30;;;;;;6229122;28;83153;-67
2021/10/04 12:01:21;;;;;;;18.40;8.90;;;26.40;51.20;;;;;;6225921;27;83744;-67
2021/10/04 12:04:21;;;;;;;16.48;8.50;;;26.40;51.20;;;;;;6223193;28;83044;-68
2021/10/04 12:07:22;;;;;;;16.63;8.95;;;26.40;51.20;;;;;;6220312;28;81690;-68
2021/10/04 12:10:22;;;;;;;26.77;13.70;;;26.40;51.30;;;;;;6217203;28;81425;-66
2021/10/04 12:13:23;;;;;;;33.90;17.13;;;26.50;51.30;;;;;;6227828;28;83379;-66
2021/10/04 12:16:23;;;;;;;33.60;18.17;;;26.50;51.30;;;;;;6220211;27;83410;-65
2021/10/04 12:19:24;;;;;;;40.53;21.13;;;26.50;51.30;;;;;;6223209;27;84271;-66
2021/10/04 12:22:24;;;;;;;45.28;25.30;;;26.50;51.40;;;;;;6218998;28;84211;-66
2021/10/04 12:25:25;;;;;;;51.42;24.52;;;26.50;51.40;;;;;;6226417;28;89504;-66
2021/10/04 12:28:25;;;;;;;39.15;20.10;;;26.50;51.60;;;;;;6219104;27;83230;-65
2021/10/04 12:31:26;;;;;;;35.08;18.95;;;26.50;51.50;;;;;;6225120;27;83209;-65
2021/10/04 12:34:27;;;;;;;35.35;16.48;;;26.50;51.60;;;;;;6223918;27;83279;-66
2021/10/04 12:37:27;;;;;;;29.63;16.98;;;26.50;51.80;;;;;;6222852;28;83364;-65
2021/10/04 12:40:28;;;;;;;24.83;14.98;;;26.50;51.80;;;;;;6223372;28;83913;-65
2021/10/04 12:43:29;;;;;;;24.77;13.60;;;26.40;52.40;;;;;;6222010;28;83130;-66
2021/10/04 12:46:29;;;;;;;21.35;12.75;;;26.50;51.90;;;;;;6224330;28;83460;-66
2021/10/04 12:49:31;;;;;;;28.17;13.52;;;26.40;51.90;;;;;;6222858;28;84521;-66
2021/10/04 12:52:31;;;;;;;18.98;11.48;;;26.40;51.90;;;;;;6223384;28;83871;-65
2021/10/04 12:55:32;;;;;;;20.08;11.60;;;26.50;52.00;;;;;;6216966;28;83880;-65
2021/10/04 12:58:32;;;;;;;18.52;11.52;;;26.50;52.20;;;;;;6219320;28;84142;-66
2021/10/04 13:01:33;;;;;;;20.52;9.80;;;26.40;52.00;;;;;;6218673;28;83294;-65
2021/10/04 13:04:33;;;;;;;14.75;9.40;;;26.40;52.10;;;;;;6224208;28;83209;-66
2021/10/04 13:07:34;;;;;;;14.60;9.65;;;26.40;52.10;;;;;;6221164;28;80403;-70
2021/10/04 13:10:34;;;;;;;16.65;9.32;;;26.40;52.10;;;;;;6221905;28;81687;-68
2021/10/04 13:13:35;;;;;;;12.82;8.63;;;26.40;52.10;;;;;;6216917;28;81183;-67
2021/10/04 13:16:35;;;;;;;14.90;9.05;;;26.40;52.30;;;;;;6224804;28;80762;-66
2021/10/04 13:19:36;;;;;;;12.75;8.25;;;26.40;52.30;;;;;;6221903;27;80746;-67
2021/10/04 13:22:36;;;;;;;13.75;8.20;;;26.40;52.20;;;;;;6228239;28;80924;-68
2021/10/04 13:25:37;;;;;;;11.35;7.95;;;26.40;52.30;;;;;;6224214;28;81280;-69
2021/10/04 13:28:37;;;;;;;12.45;7.97;;;26.40;52.30;;;;;;6220349;27;80755;-68
2021/10/04 13:31:38;;;;;;;11.85;7.20;;;26.30;52.20;;;;;;6220488;27;82076;-67
2021/10/04 13:34:38;;;;;;;13.70;8.13;;;26.40;52.40;;;;;;6226908;28;80838;-70
2021/10/04 13:37:39;;;;;;;13.93;7.57;;;26.30;52.40;;;;;;6227624;28;81292;-67
2021/10/04 13:40:39;;;;;;;12.15;7.50;;;26.30;52.50;;;;;;6223101;28;80330;-68
2021/10/04 13:43:40;;;;;;;14.77;8.25;;;26.40;52.60;;;;;;6224642;28;86146;-67
2021/10/04 13:46:40;;;;;;;10.18;7.25;;;26.30;52.60;;;;;;6226976;28;80196;-67
2021/10/04 13:49:41;;;;;;;9.38;7.13;;;26.30;52.70;;;;;;6229648;28;81070;-67
2021/10/04 13:52:41;;;;;;;10.98;7.47;;;26.30;52.80;;;;;;6226685;28;81338;-67
2021/10/04 13:55:42;;;;;;;12.23;7.22;;;26.30;52.80;;;;;;6227000;28;80533;-68
2021/10/04 13:58:42;;;;;;;12.55;6.75;;;26.30;52.80;;;;;;6227484;28;80399;-67
2021/10/04 14:01:44;;;;;;;11.57;7.10;;;26.30;52.70;;;;;;6225879;28;80656;-68
2021/10/04 14:04:45;;;;;;;10.38;7.75;;;26.40;52.80;;;;;;6224080;28;80499;-69
2021/10/04 14:07:45;;;;;;;11.65;7.07;;;26.30;52.80;;;;;;6226898;28;80527;-68
2021/10/04 14:10:46;;;;;;;13.88;8.55;;;26.30;53.00;;;;;;6226085;28;80476;-70
2021/10/04 14:13:46;;;;;;;9.00;6.45;;;26.30;53.10;;;;;;6226718;28;82149;-66
2021/10/04 14:16:47;;;;;;;12.35;7.57;;;26.30;53.00;;;;;;6223718;27;81571;-67
2021/10/04 14:19:47;;;;;;;8.00;6.57;;;26.30;53.00;;;;;;6227328;28;81564;-66
2021/10/04 14:22:48;;;;;;;7.82;6.25;;;26.30;53.00;;;;;;6232826;28;81222;-66
2021/10/04 14:25:49;;;;;;;11.55;7.65;;;26.30;53.00;;;;;;6230673;27;81481;-67
2021/10/04 14:28:49;;;;;;;10.10;7.15;;;26.30;53.10;;;;;;6222833;28;80639;-66
2021/10/04 14:31:50;;;;;;;11.95;7.30;;;26.20;53.00;;;;;;6225006;27;82373;-66
2021/10/04 14:34:50;;;;;;;8.35;6.72;;;26.20;53.10;;;;;;6229084;28;81176;-65
2021/10/04 14:37:51;;;;;;;12.77;7.00;;;26.20;53.20;;;;;;6223308;28;80585;-66
2021/10/04 14:40:51;;;;;;;8.82;6.28;;;26.20;53.10;;;;;;6225310;28;80397;-67
2021/10/04 14:43:52;;;;;;;9.05;6.10;;;26.20;53.10;;;;;;6227169;28;80677;-65
2021/10/04 14:46:53;;;;;;;9.10;6.57;;;26.20;53.10;;;;;;6223527;27;80037;-67
2021/10/04 14:49:56;;;;;;;10.00;6.68;;;26.20;52.90;;;;;;6228355;28;80662;-68
2021/10/04 14:52:57;;;;;;;12.88;6.95;;;26.20;53.00;;;;;;6227827;28;80469;-68
2021/10/04 14:55:57;;;;;;;14.27;7.20;;;26.20;52.90;;;;;;6217601;27;80817;-68
2021/10/04 14:59:00;;;;;;;8.68;6.22;;;26.20;53.00;;;;;;6214512;27;81014;-70
2021/10/04 15:02:00;;;;;;;8.80;6.60;;;26.20;53.00;;;;;;6195849;28;80750;-69
2021/10/04 15:05:01;;;;;;;9.45;6.43;;;26.10;53.00;;;;;;6195158;28;80786;-68
2021/10/04 15:08:01;;;;;;;9.35;7.00;;;26.20;53.20;;;;;;6200155;28;81129;-67
2021/10/04 15:11:02;;;;;;;10.23;6.65;;;26.10;52.90;;;;;;6196793;28;80625;-68
2021/10/04 15:14:02;;;;;;;8.93;6.88;;;26.10;53.10;;;;;;6193883;28;80674;-67
2021/10/04 15:17:03;;;;;;;9.48;7.10;;;26.10;53.20;;;;;;6193555;28;80816;-70
2021/10/04 15:20:03;;;;;;;9.60;6.85;;;26.10;53.60;;;;;;6209368;28;83054;-69
2021/10/04 15:23:04;;;;;;;8.70;6.70;;;26.20;53.60;;;;;;6199872;28;83218;-69
2021/10/04 15:26:05;;;;;;;11.10;6.95;;;26.20;53.60;;;;;;6193990;28;81011;-70